Time;durP1;ratioP1;P1;durP2;ratioP2;P2;SDS_P1;SDS_P2;PMS_P1;PMS_P2;Temp;Humidity;BMP_temperature;BMP_pressure;BME280_temperature;BME280_humidity;BME280_pressure;Samples;Min_cycle;Max_cycle;Signal;HPM_P1;HPM_P2
2021/10/16 00:01:24;;;;;;;5.57;1.50;;;13.20;92.70;;;;;;5015241;28;20038;-70
2021/10/16 00:03:49;;;;;;;9.60;2.22;;;13.20;92.70;;;;;;5015364;28;20057;-70
2021/10/16 00:06:16;;;;;;;7.68;1.88;;;13.20;92.70;;;;;;5015184;28;20115;-70
2021/10/16 00:08:42;;;;;;;8.07;1.70;;;13.20;92.70;;;;;;5014949;28;20041;-70
2021/10/16 00:11:08;;;;;;;6.93;1.95;;;13.20;92.40;;;;;;5015107;28;20417;-71
2021/10/16 00:13:33;;;;;;;6.53;1.80;;;13.20;92.60;;;;;;5015046;28;20132;-71
2021/10/16 00:15:59;;;;;;;7.55;1.50;;;13.20;92.60;;;;;;5015070;28;20057;-70
2021/10/16 00:18:25;;;;;;;7.68;1.60;;;13.20;92.60;;;;;;5014722;28;20021;-70
2021/10/16 00:20:50;;;;;;;9.52;2.00;;;13.20;92.60;;;;;;5014884;28;20025;-70
2021/10/16 00:23:16;;;;;;;7.70;1.80;;;13.20;92.30;;;;;;5014930;28;20060;-70
2021/10/16 00:25:42;;;;;;;6.60;1.40;;;13.20;92.60;;;;;;5014916;28;20397;-70
2021/10/16 00:28:08;;;;;;;9.32;1.90;;;13.20;92.60;;;;;;5014648;28;20034;-71
2021/10/16 00:30:34;;;;;;;8.73;1.63;;;13.20;92.50;;;;;;5014412;28;20029;-71
2021/10/16 00:32:59;;;;;;;5.18;1.38;;;13.20;92.50;;;;;;5014807;28;20026;-70
2021/10/16 00:35:25;;;;;;;7.18;1.90;;;13.20;92.50;;;;;;5014685;28;20036;-71
2021/10/16 00:37:50;;;;;;;7.78;1.80;;;13.20;92.60;;;;;;5014667;28;20026;-70
2021/10/16 00:40:16;;;;;;;8.57;1.52;;;13.20;92.70;;;;;;5014223;28;20029;-70
2021/10/16 00:42:50;;;;;;;8.98;1.70;;;13.20;92.60;;;;;;5014474;28;20030;-70
2021/10/16 00:45:18;;;;;;;8.02;1.65;;;13.20;92.80;;;;;;5014527;28;20080;-70
2021/10/16 00:47:44;;;;;;;7.20;1.67;;;13.10;92.70;;;;;;5014367;28;20026;-70
2021/10/16 00:50:11;;;;;;;6.47;1.48;;;13.20;92.50;;;;;;5012791;28;20057;-70
2021/10/16 00:52:38;;;;;;;8.32;1.55;;;13.20;92.60;;;;;;5014425;28;20033;-70
2021/10/16 00:55:09;;;;;;;6.95;1.55;;;13.20;92.60;;;;;;5014386;28;20478;-70
2021/10/16 00:57:34;;;;;;;8.82;1.80;;;13.10;92.50;;;;;;5014148;28;20482;-70
2021/10/16 01:00:03;;;;;;;7.25;1.80;;;13.20;92.70;;;;;;5013004;28;20038;-70
2021/10/16 01:02:28;;;;;;;6.57;1.60;;;13.10;92.60;;;;;;5012874;28;20054;-70
2021/10/16 01:04:55;;;;;;;7.82;1.52;;;13.10;92.80;;;;;;5014196;28;20087;-70
2021/10/16 01:07:20;;;;;;;5.97;1.52;;;13.10;92.50;;;;;;5014083;28;20026;-70
2021/10/16 01:09:47;;;;;;;7.38;1.60;;;13.10;92.40;;;;;;5013722;28;20097;-70
2021/10/16 01:12:12;;;;;;;6.38;1.55;;;13.20;92.30;;;;;;5014016;28;20022;-70
2021/10/16 01:14:57;;;;;;;10.07;1.90;;;13.10;92.30;;;;;;5014013;28;20101;-70
2021/10/16 01:17:24;;;;;;;6.38;1.70;;;13.20;92.60;;;;;;4996762;28;20396;-70
2021/10/16 01:19:54;;;;;;;6.18;1.63;;;13.10;92.70;;;;;;4994151;28;20026;-70
2021/10/16 01:22:20;;;;;;;6.97;1.35;;;13.10;92.60;;;;;;5002770;28;20551;-70
2021/10/16 01:24:47;;;;;;;8.20;1.67;;;13.10;92.40;;;;;;5013778;28;20109;-70
2021/10/16 01:27:13;;;;;;;6.72;2.00;;;13.10;92.60;;;;;;5013613;28;20177;-70
2021/10/16 01:29:39;;;;;;;5.82;1.42;;;13.10;92.50;;;;;;5013390;28;20028;-70
2021/10/16 01:32:05;;;;;;;5.85;1.48;;;13.20;92.60;;;;;;5013743;28;20033;-70
2021/10/16 01:34:31;;;;;;;8.13;1.63;;;13.10;92.40;;;;;;5042244;23;20652;-65
2021/10/16 01:36:57;;;;;;;8.98;1.63;;;13.10;92.40;;;;;;4993638;28;20057;-66
2021/10/16 01:39:22;;;;;;;7.18;1.55;;;13.10;92.40;;;;;;4993371;28;20359;-66
2021/10/16 01:41:49;;;;;;;7.90;1.63;;;13.10;92.70;;;;;;4993850;28;20030;-66
2021/10/16 01:44:15;;;;;;;10.88;1.90;;;13.10;92.30;;;;;;4993635;28;20030;-65
2021/10/16 01:46:41;;;;;;;6.80;1.35;;;13.10;92.40;;;;;;4993610;28;20061;-66
2021/10/16 01:49:14;;;;;;;6.82;1.42;;;13.10;92.50;;;;;;4993343;28;20019;-65
2021/10/16 01:51:40;;;;;;;6.40;1.77;;;13.10;92.40;;;;;;4993449;28;20030;-66
2021/10/16 01:54:06;;;;;;;5.57;1.92;;;13.10;92.50;;;;;;4993450;28;20038;-65
2021/10/16 01:56:32;;;;;;;6.22;1.40;;;13.10;92.60;;;;;;4993505;28;20055;-66
2021/10/16 01:59:12;;;;;;;7.15;1.77;;;13.10;92.50;;;;;;4993184;28;20105;-66
2021/10/16 02:01:37;;;;;;;7.82;2.08;;;13.10;92.50;;;;;;4993369;28;20397;-66
2021/10/16 02:04:03;;;;;;;7.75;1.67;;;13.10;92.40;;;;;;4993287;28;20029;-66
2021/10/16 02:06:28;;;;;;;7.97;1.75;;;13.10;92.30;;;;;;4993110;28;20130;-66
2021/10/16 02:08:54;;;;;;;9.43;2.13;;;13.10;92.40;;;;;;4992996;28;20430;-65
2021/10/16 02:11:19;;;;;;;7.10;1.85;;;13.10;92.30;;;;;;4988480;28;20034;-66
2021/10/16 02:13:45;;;;;;;7.07;1.70;;;13.10;92.40;;;;;;4973822;28;20390;-66
2021/10/16 02:16:10;;;;;;;6.82;1.75;;;13.10;92.20;;;;;;4973710;28;20449;-67
2021/10/16 02:18:36;;;;;;;8.30;1.67;;;13.10;92.20;;;;;;4973354;28;20026;-65
2021/10/16 02:21:01;;;;;;;7.28;2.13;;;13.10;92.10;;;;;;4973424;28;20554;-66
2021/10/16 02:23:27;;;;;;;6.93;2.10;;;13.10;92.10;;;;;;4973537;28;20031;-66
2021/10/16 02:25:52;;;;;;;7.95;1.83;;;13.10;92.30;;;;;;4973404;28;20031;-66
2021/10/16 02:28:18;;;;;;;7.03;1.95;;;13.00;92.20;;;;;;4973236;28;20057;-65
2021/10/16 02:30:43;;;;;;;7.40;2.13;;;13.00;92.20;;;;;;4971385;28;20023;-66
2021/10/16 02:33:09;;;;;;;8.70;1.70;;;13.00;92.20;;;;;;4987228;28;20066;-66
2021/10/16 02:35:35;;;;;;;8.68;2.42;;;13.00;92.30;;;;;;4992791;28;20022;-65
2021/10/16 02:38:00;;;;;;;8.18;2.30;;;13.00;92.00;;;;;;4992754;28;20109;-66
2021/10/16 02:40:25;;;;;;;9.23;2.45;;;13.00;92.10;;;;;;4991188;28;20030;-66
2021/10/16 02:42:51;;;;;;;8.40;2.33;;;13.10;92.10;;;;;;4992410;28;20446;-66
2021/10/16 02:45:18;;;;;;;7.68;2.15;;;13.00;92.10;;;;;;4992587;28;20031;-65
2021/10/16 02:47:45;;;;;;;7.35;2.50;;;13.00;92.10;;;;;;4991178;28;20029;-66
2021/10/16 02:50:11;;;;;;;7.97;2.40;;;13.00;92.20;;;;;;4992340;28;20023;-66
2021/10/16 02:52:37;;;;;;;7.30;2.30;;;13.00;92.00;;;;;;4992558;28;20481;-66
2021/10/16 02:55:02;;;;;;;7.13;2.72;;;13.00;92.10;;;;;;4991211;28;20113;-66
2021/10/16 02:57:28;;;;;;;8.00;2.88;;;13.00;92.10;;;;;;4991032;28;20061;-66
2021/10/16 02:59:53;;;;;;;10.55;2.70;;;13.00;91.80;;;;;;4992177;28;20113;-65
2021/10/16 03:02:19;;;;;;;7.25;2.90;;;13.00;92.10;;;;;;4992394;28;20038;-66
2021/10/16 03:04:44;;;;;;;11.80;3.20;;;13.00;92.20;;;;;;4992300;28;20042;-65
2021/10/16 03:07:10;;;;;;;9.43;2.83;;;13.00;92.50;;;;;;4991012;28;20440;-65
2021/10/16 03:09:35;;;;;;;9.30;2.50;;;13.00;92.50;;;;;;4990777;28;20057;-67
2021/10/16 03:12:01;;;;;;;11.77;3.30;;;13.00;92.80;;;;;;4975386;28;20027;-66
2021/10/16 03:14:26;;;;;;;9.15;3.10;;;13.00;92.80;;;;;;4972802;28;20023;-67
2021/10/16 03:16:52;;;;;;;11.55;3.47;;;13.00;92.70;;;;;;4971653;28;20455;-66
2021/10/16 03:19:17;;;;;;;7.55;2.90;;;13.00;92.80;;;;;;4972570;28;20498;-66
2021/10/16 03:21:43;;;;;;;8.60;3.22;;;13.00;92.90;;;;;;4972258;28;20066;-66
2021/10/16 03:24:09;;;;;;;8.02;3.20;;;13.00;92.50;;;;;;4972698;28;20023;-66
2021/10/16 03:26:34;;;;;;;10.75;3.60;;;13.00;92.30;;;;;;4972525;28;20027;-67
2021/10/16 03:29:00;;;;;;;8.02;3.00;;;13.00;92.40;;;;;;4972386;28;20118;-65
2021/10/16 03:31:25;;;;;;;11.45;4.43;;;13.00;92.10;;;;;;4972737;28;20054;-66
2021/10/16 03:33:51;;;;;;;10.32;3.83;;;13.00;92.10;;;;;;4971260;28;20510;-66
2021/10/16 03:36:16;;;;;;;10.40;3.90;;;13.00;92.00;;;;;;4972694;28;20483;-66
2021/10/16 03:38:42;;;;;;;10.18;3.90;;;13.00;92.10;;;;;;4972450;28;20490;-66
2021/10/16 03:41:07;;;;;;;8.02;3.53;;;13.00;91.90;;;;;;4972408;28;20081;-66
2021/10/16 03:43:33;;;;;;;9.23;3.83;;;13.00;92.10;;;;;;4972468;28;20173;-66
2021/10/16 03:45:58;;;;;;;9.32;3.75;;;13.00;91.90;;;;;;4972515;28;20046;-65
2021/10/16 03:48:24;;;;;;;9.65;4.20;;;13.00;91.70;;;;;;4971054;28;20030;-65
2021/10/16 03:50:49;;;;;;;11.05;4.65;;;13.00;92.10;;;;;;4972530;28;20027;-65
2021/10/16 03:53:16;;;;;;;9.75;4.15;;;13.00;92.00;;;;;;4971203;28;20154;-67
2021/10/16 03:55:42;;;;;;;8.63;3.63;;;13.00;91.90;;;;;;4972293;28;20077;-67
2021/10/16 03:58:07;;;;;;;9.73;4.20;;;12.90;92.30;;;;;;4972475;28;20027;-66
2021/10/16 04:00:33;;;;;;;8.73;4.15;;;12.90;91.90;;;;;;4970935;28;20030;-66
2021/10/16 04:03:07;;;;;;;9.98;5.00;;;12.90;91.90;;;;;;4972355;28;20054;-66
2021/10/16 04:05:33;;;;;;;8.43;4.13;;;12.90;91.90;;;;;;4972435;28;20560;-66
2021/10/16 04:08:00;;;;;;;10.45;4.53;;;12.90;92.10;;;;;;4972292;28;20085;-65
2021/10/16 04:10:25;;;;;;;8.65;4.20;;;12.90;92.00;;;;;;4970657;28;20045;-66
2021/10/16 04:12:51;;;;;;;9.98;4.45;;;13.00;92.20;;;;;;4972227;28;20063;-65
2021/10/16 04:15:17;;;;;;;11.13;4.75;;;13.00;92.20;;;;;;4972205;28;20038;-65
2021/10/16 04:17:45;;;;;;;10.32;5.25;;;13.00;92.30;;;;;;4972322;28;20034;-66
2021/10/16 04:20:11;;;;;;;11.57;4.55;;;12.90;91.90;;;;;;4972035;28;20027;-65
2021/10/16 04:22:36;;;;;;;12.00;4.88;;;12.90;92.10;;;;;;4972223;28;20081;-66
2021/10/16 04:25:02;;;;;;;11.90;5.03;;;12.90;92.20;;;;;;4971975;28;20143;-65
2021/10/16 04:27:27;;;;;;;11.00;4.70;;;12.90;92.00;;;;;;4972024;28;20031;-65
2021/10/16 04:29:53;;;;;;;9.15;4.65;;;12.90;91.80;;;;;;4970808;28;20487;-65
2021/10/16 04:32:19;;;;;;;8.82;4.85;;;12.90;92.00;;;;;;4973075;28;20505;-66
2021/10/16 04:34:45;;;;;;;9.85;4.93;;;12.90;92.00;;;;;;4986050;28;20438;-66
2021/10/16 04:37:10;;;;;;;9.98;5.53;;;12.90;92.00;;;;;;4994849;28;20081;-65
2021/10/16 04:39:36;;;;;;;12.00;4.72;;;12.90;92.10;;;;;;4994530;28;20027;-66
2021/10/16 04:42:02;;;;;;;9.77;5.30;;;12.90;92.20;;;;;;4993623;28;20405;-66
2021/10/16 04:44:27;;;;;;;10.10;5.32;;;12.90;91.90;;;;;;4993629;28;20122;-66
2021/10/16 04:46:53;;;;;;;11.52;5.90;;;12.90;91.60;;;;;;4994778;28;20062;-66
2021/10/16 04:49:19;;;;;;;12.88;5.95;;;12.90;91.90;;;;;;4994497;28;20028;-65
2021/10/16 04:51:44;;;;;;;10.38;5.57;;;12.90;91.60;;;;;;4994805;28;20022;-66
2021/10/16 04:54:10;;;;;;;11.75;5.82;;;12.90;91.60;;;;;;4994556;28;20061;-66
2021/10/16 04:56:36;;;;;;;12.68;5.57;;;12.90;91.90;;;;;;4994637;28;20026;-66
2021/10/16 04:59:01;;;;;;;11.85;5.75;;;12.90;91.80;;;;;;4994390;28;20035;-66
2021/10/16 05:01:27;;;;;;;12.43;6.35;;;12.90;91.80;;;;;;4993331;28;20031;-65
2021/10/16 05:03:52;;;;;;;10.10;5.50;;;12.80;91.60;;;;;;4994444;28;20441;-66
2021/10/16 05:06:20;;;;;;;10.70;5.32;;;12.90;91.70;;;;;;4994501;28;20023;-66
2021/10/16 05:08:46;;;;;;;9.65;5.55;;;12.90;91.90;;;;;;4994004;28;20023;-65
2021/10/16 05:11:11;;;;;;;11.13;5.57;;;12.90;91.60;;;;;;4984333;28;20375;-65
2021/10/16 05:13:37;;;;;;;11.20;5.90;;;12.90;91.90;;;;;;4975033;28;20038;-66
2021/10/16 05:16:02;;;;;;;12.48;6.20;;;12.80;91.60;;;;;;4973621;28;20557;-66
2021/10/16 05:18:28;;;;;;;8.95;5.63;;;12.80;91.50;;;;;;4974589;28;20037;-66
2021/10/16 05:20:53;;;;;;;12.57;6.28;;;12.80;91.70;;;;;;4974824;28;20062;-66
2021/10/16 05:23:19;;;;;;;11.10;5.97;;;12.80;91.40;;;;;;4974542;28;20050;-66
2021/10/16 05:25:45;;;;;;;11.25;5.70;;;12.80;91.40;;;;;;4973431;28;20038;-64
2021/10/16 05:28:10;;;;;;;11.65;6.43;;;12.80;91.50;;;;;;4974571;28;20058;-65
2021/10/16 05:30:37;;;;;;;11.15;5.80;;;12.80;91.60;;;;;;4974531;28;20501;-65
2021/10/16 05:33:02;;;;;;;11.50;5.78;;;12.80;91.60;;;;;;4974444;28;20023;-66
2021/10/16 05:35:28;;;;;;;14.82;6.40;;;12.80;91.30;;;;;;4974631;28;20026;-66
2021/10/16 05:37:54;;;;;;;9.77;5.97;;;12.80;91.40;;;;;;4974328;28;20031;-66
2021/10/16 05:40:19;;;;;;;10.60;6.03;;;12.80;91.40;;;;;;4980028;28;20034;-65
2021/10/16 05:42:45;;;;;;;10.07;5.50;;;12.80;91.40;;;;;;4993903;28;20041;-66
2021/10/16 05:45:10;;;;;;;10.30;6.15;;;12.80;91.50;;;;;;4993279;28;20041;-66
2021/10/16 05:47:36;;;;;;;10.65;6.10;;;12.80;91.30;;;;;;4993994;28;20030;-66
2021/10/16 05:50:07;;;;;;;10.43;6.00;;;12.80;91.40;;;;;;4993560;28;20069;-67
2021/10/16 05:52:33;;;;;;;10.52;6.55;;;12.80;91.40;;;;;;4993658;28;20076;-66
2021/10/16 05:54:59;;;;;;;12.05;6.05;;;12.80;91.50;;;;;;4993592;28;20038;-65
2021/10/16 05:57:24;;;;;;;13.85;6.53;;;12.80;91.60;;;;;;4993630;28;20023;-66
2021/10/16 05:59:50;;;;;;;11.02;6.00;;;12.80;91.30;;;;;;4993319;28;20498;-66
2021/10/16 06:02:15;;;;;;;12.98;6.80;;;12.70;91.50;;;;;;4985317;28;20031;-66
2021/10/16 06:04:41;;;;;;;14.13;6.68;;;12.80;91.40;;;;;;4972691;28;20038;-66
2021/10/16 06:07:06;;;;;;;20.73;6.75;;;12.80;91.20;;;;;;4973886;28;20027;-66
2021/10/16 06:09:32;;;;;;;20.45;7.10;;;12.80;91.30;;;;;;4973615;28;20030;-66
2021/10/16 06:11:58;;;;;;;15.32;6.30;;;12.70;90.90;;;;;;4973826;28;20026;-66
2021/10/16 06:14:23;;;;;;;13.98;6.93;;;12.80;91.10;;;;;;4977783;28;20081;-66
2021/10/16 06:16:49;;;;;;;14.50;7.10;;;12.80;91.00;;;;;;4991604;28;20030;-67
2021/10/16 06:19:15;;;;;;;13.55;6.57;;;12.80;91.30;;;;;;4975914;28;20180;-66
2021/10/16 06:21:40;;;;;;;14.50;6.50;;;12.70;91.00;;;;;;4973121;28;20026;-66
2021/10/16 06:24:06;;;;;;;12.50;7.03;;;12.80;91.20;;;;;;4973163;28;20528;-66
2021/10/16 06:26:32;;;;;;;16.17;6.38;;;12.80;91.30;;;;;;4973570;28;20026;-66
2021/10/16 06:28:57;;;;;;;11.20;5.97;;;12.80;91.10;;;;;;4973216;28;20149;-66
2021/10/16 06:31:23;;;;;;;18.85;6.90;;;12.70;91.10;;;;;;4973505;28;20031;-66
2021/10/16 06:33:48;;;;;;;14.43;6.57;;;12.70;91.30;;;;;;4973240;28;20049;-66
2021/10/16 06:36:14;;;;;;;12.63;6.32;;;12.70;91.50;;;;;;4972028;28;20372;-66
2021/10/16 06:38:39;;;;;;;13.43;6.65;;;12.70;91.60;;;;;;4973039;28;20037;-66
2021/10/16 06:41:05;;;;;;;13.60;6.97;;;12.70;91.70;;;;;;4973356;28;20072;-66
2021/10/16 06:43:31;;;;;;;14.95;7.28;;;12.80;92.00;;;;;;4973265;28;20047;-66
2021/10/16 06:45:57;;;;;;;11.10;6.18;;;12.80;92.10;;;;;;4972040;28;20033;-66
2021/10/16 06:48:22;;;;;;;12.02;6.80;;;12.80;91.90;;;;;;4972854;28;20073;-66
2021/10/16 06:50:48;;;;;;;11.57;6.53;;;12.80;91.70;;;;;;4973061;28;20056;-66
2021/10/16 06:53:13;;;;;;;10.93;6.72;;;12.80;91.90;;;;;;4971770;28;20046;-67
2021/10/16 06:55:39;;;;;;;13.95;6.95;;;12.80;91.90;;;;;;4971949;28;20062;-67
2021/10/16 06:58:04;;;;;;;12.77;7.10;;;12.70;91.80;;;;;;4972414;28;20031;-66
2021/10/16 07:00:30;;;;;;;13.38;5.93;;;12.80;91.90;;;;;;4972896;28;20494;-66
2021/10/16 07:02:55;;;;;;;11.57;6.60;;;12.80;92.00;;;;;;4973016;28;20491;-65
2021/10/16 07:05:21;;;;;;;11.65;6.65;;;12.80;92.00;;;;;;4972770;28;20501;-66
2021/10/16 07:07:46;;;;;;;10.82;6.75;;;12.80;92.00;;;;;;4972880;28;20033;-67
2021/10/16 07:10:12;;;;;;;15.07;7.13;;;12.70;91.90;;;;;;4972596;28;20027;-66
2021/10/16 07:12:38;;;;;;;10.40;6.60;;;12.80;91.90;;;;;;4972960;28;20030;-66
2021/10/16 07:15:05;;;;;;;13.18;6.85;;;12.80;91.90;;;;;;4972847;28;20038;-66
2021/10/16 07:17:31;;;;;;;11.75;6.85;;;12.80;91.90;;;;;;4972768;28;20031;-66
2021/10/16 07:19:56;;;;;;;13.48;6.95;;;12.80;91.80;;;;;;4972360;28;20038;-66
2021/10/16 07:22:22;;;;;;;10.98;6.78;;;12.80;92.00;;;;;;4972790;28;20085;-66
2021/10/16 07:24:48;;;;;;;10.65;6.85;;;12.80;92.00;;;;;;4972708;28;20086;-66
2021/10/16 07:27:15;;;;;;;13.35;6.97;;;12.80;92.20;;;;;;4971485;28;20030;-66
2021/10/16 07:29:41;;;;;;;12.43;6.97;;;12.80;92.20;;;;;;4972488;28;20019;-66
2021/10/16 07:32:06;;;;;;;12.70;6.75;;;12.80;91.90;;;;;;4972785;28;20027;-66
2021/10/16 07:34:32;;;;;;;13.43;7.47;;;12.70;92.20;;;;;;4972313;28;20035;-66
2021/10/16 07:36:57;;;;;;;11.57;7.18;;;12.80;91.90;;;;;;4972671;28;20027;-66
2021/10/16 07:39:23;;;;;;;11.82;6.93;;;12.70;91.90;;;;;;4972406;28;20027;-66
2021/10/16 07:41:48;;;;;;;13.07;7.03;;;12.80;92.00;;;;;;4971312;28;20114;-66
2021/10/16 07:44:15;;;;;;;10.60;7.22;;;12.80;91.90;;;;;;4972618;28;20557;-66
2021/10/16 07:46:41;;;;;;;13.50;7.22;;;12.80;91.80;;;;;;4972549;28;20426;-66
2021/10/16 07:49:07;;;;;;;13.05;7.00;;;12.70;92.00;;;;;;4976997;28;20401;-66
2021/10/16 07:51:32;;;;;;;11.15;7.10;;;12.70;91.90;;;;;;4982752;28;20110;-66
2021/10/16 07:53:58;;;;;;;11.00;7.22;;;12.80;91.90;;;;;;4980128;28;20390;-66
2021/10/16 07:56:24;;;;;;;14.23;7.15;;;12.80;91.90;;;;;;4978797;28;20038;-66
2021/10/16 07:58:49;;;;;;;11.23;6.60;;;12.80;92.00;;;;;;4972338;28;20106;-66
2021/10/16 08:01:15;;;;;;;13.60;7.20;;;12.70;92.10;;;;;;4971416;28;20031;-66
2021/10/16 08:03:40;;;;;;;12.82;7.38;;;12.80;92.10;;;;;;4972288;28;20041;-65
2021/10/16 08:06:06;;;;;;;12.18;7.25;;;12.70;92.00;;;;;;4972498;28;20135;-66
2021/10/16 08:08:32;;;;;;;12.13;7.43;;;12.80;92.20;;;;;;4973469;28;20375;-65
2021/10/16 08:10:57;;;;;;;13.48;8.27;;;12.70;92.20;;;;;;4979825;28;20387;-66
2021/10/16 08:13:25;;;;;;;12.85;6.97;;;12.70;92.20;;;;;;4976246;28;20399;-66
2021/10/16 08:15:50;;;;;;;12.32;7.35;;;12.80;92.30;;;;;;4974840;28;20035;-65
2021/10/16 08:18:16;;;;;;;15.05;7.25;;;12.80;92.40;;;;;;4980809;28;20494;-64
2021/10/16 08:20:42;;;;;;;11.93;7.28;;;12.80;92.40;;;;;;4984293;28;20497;-66
2021/10/16 08:23:07;;;;;;;13.40;7.18;;;12.80;92.40;;;;;;4985615;28;20034;-66
2021/10/16 08:25:34;;;;;;;13.38;7.18;;;12.80;92.50;;;;;;4995524;28;20037;-65
2021/10/16 08:28:09;;;;;;;12.35;7.13;;;12.80;92.50;;;;;;4995237;28;20030;-66
2021/10/16 08:30:36;;;;;;;12.70;7.35;;;12.80;92.50;;;;;;4994988;28;20022;-66
2021/10/16 08:33:01;;;;;;;14.23;7.50;;;12.80;92.30;;;;;;4995023;28;20026;-66
2021/10/16 08:35:27;;;;;;;11.48;7.07;;;12.80;92.30;;;;;;4995454;28;20022;-66
2021/10/16 08:37:52;;;;;;;10.80;7.30;;;12.80;92.40;;;;;;4995117;28;20031;-66
2021/10/16 08:40:18;;;;;;;11.05;7.22;;;12.80;92.30;;;;;;4993631;28;20482;-66
2021/10/16 08:42:45;;;;;;;12.13;6.88;;;12.80;92.50;;;;;;4995073;28;20030;-66
2021/10/16 08:45:11;;;;;;;11.05;7.22;;;12.80;92.40;;;;;;4993496;28;20057;-67
2021/10/16 08:47:38;;;;;;;13.13;6.72;;;12.80;92.50;;;;;;4994797;28;20029;-66
2021/10/16 08:50:08;;;;;;;9.93;6.75;;;12.80;92.50;;;;;;4994649;28;20029;-66
2021/10/16 08:52:35;;;;;;;12.27;7.13;;;12.80;92.40;;;;;;4994949;28;20425;-67
2021/10/16 08:55:01;;;;;;;12.10;6.40;;;12.80;92.50;;;;;;4984606;28;20086;-66
2021/10/16 08:57:34;;;;;;;13.30;7.20;;;12.80;92.30;;;;;;4975488;28;20456;-66
2021/10/16 09:00:42;;;;;;;11.73;7.55;;;12.80;92.40;;;;;;4973681;28;20033;-65
2021/10/16 09:03:35;;;;;;;11.48;6.68;;;12.80;92.40;;;;;;4963963;28;20050;-66
2021/10/16 09:06:05;;;;;;;11.85;6.68;;;12.80;92.30;;;;;;4975061;28;20027;-67
2021/10/16 09:08:32;;;;;;;13.68;7.25;;;12.90;92.30;;;;;;4974971;28;20030;-66
2021/10/16 09:11:18;;;;;;;12.20;6.68;;;12.80;92.10;;;;;;4975093;28;20098;-66
2021/10/16 09:14:03;;;;;;;14.30;6.80;;;12.80;92.30;;;;;;4975049;28;20019;-66
2021/10/16 09:16:41;;;;;;;13.70;7.20;;;12.80;92.30;;;;;;4980997;28;20027;-66
2021/10/16 09:19:10;;;;;;;13.13;6.70;;;12.80;92.20;;;;;;4974774;28;20042;-67
2021/10/16 09:21:40;;;;;;;11.77;6.55;;;12.80;92.10;;;;;;4987744;28;20022;-67
2021/10/16 09:24:16;;;;;;;16.13;7.38;;;12.80;92.30;;;;;;4992982;28;20508;-67
2021/10/16 09:26:45;;;;;;;24.75;7.95;;;12.80;92.30;;;;;;4993384;28;20069;-66
2021/10/16 09:30:04;;;;;;;55.30;8.05;;;13.10;92.80;;;;;;5090903;27;1915397;-75
2021/10/16 09:32:30;;;;;;;44.47;7.47;;;14.10;90.00;;;;;;5130977;28;20038;-75
2021/10/16 09:35:35;;;;;;;45.13;7.93;;;14.80;86.00;;;;;;5110252;27;20310;-74
2021/10/16 09:38:00;;;;;;;61.05;8.70;;;15.30;83.90;;;;;;5108927;28;20035;-75
2021/10/16 09:40:40;;;;;;;47.45;8.57;;;15.60;82.60;;;;;;5108698;28;20381;-76
2021/10/16 09:43:23;;;;;;;44.83;7.93;;;16.00;80.70;;;;;;5110200;28;20516;-75
2021/10/16 09:46:08;;;;;;;41.10;8.10;;;16.10;79.80;;;;;;5110118;28;20473;-76
2021/10/16 09:48:36;;;;;;;28.27;6.60;;;16.00;79.30;;;;;;5108859;28;20024;-75
2021/10/16 09:51:02;;;;;;;65.88;10.05;;;16.00;79.30;;;;;;5108836;28;20371;-75
2021/10/16 09:53:28;;;;;;;144.80;17.40;;;15.90;79.30;;;;;;5110043;28;20042;-76
2021/10/16 09:55:54;;;;;;;120.57;14.20;;;15.90;79.20;;;;;;5108351;28;20497;-78
2021/10/16 09:58:24;;;;;;;107.22;12.52;;;16.00;78.80;;;;;;5108447;28;20035;-77
2021/10/16 10:00:53;;;;;;;96.03;11.57;;;16.20;78.30;;;;;;5108761;28;20114;-74
2021/10/16 10:03:26;;;;;;;86.68;12.02;;;16.40;77.40;;;;;;5103204;28;20488;-76
2021/10/16 10:05:53;;;;;;;87.35;11.05;;;16.70;76.40;;;;;;5098802;28;20408;-77
2021/10/16 10:08:20;;;;;;;59.55;8.45;;;16.90;75.60;;;;;;5090095;28;20104;-75
2021/10/16 10:10:47;;;;;;;50.15;7.80;;;17.10;74.90;;;;;;5096357;28;20075;-75
2021/10/16 10:13:14;;;;;;;43.95;7.28;;;17.40;73.10;;;;;;5109508;28;20024;-76
2021/10/16 10:15:40;;;;;;;49.55;7.50;;;17.60;72.40;;;;;;5109646;28;20389;-75
2021/10/16 10:20:56;;;;;;;39.35;7.45;;;17.80;71.30;;;;;;5109520;28;20534;-75
2021/10/16 10:23:23;;;;;;;34.85;6.32;;;17.90;71.20;;;;;;5109352;28;20080;-75
2021/10/16 10:25:49;;;;;;;28.02;6.03;;;18.10;70.70;;;;;;5109290;28;20027;-76
2021/10/16 10:28:15;;;;;;;30.75;5.90;;;18.20;71.20;;;;;;5108407;28;20028;-75
2021/10/16 10:30:42;;;;;;;31.30;5.97;;;18.20;70.60;;;;;;5110821;28;20016;-75
2021/10/16 10:33:18;;;;;;;27.98;5.18;;;18.40;70.40;;;;;;5108497;28;20027;-76
2021/10/16 10:35:48;;;;;;;27.27;5.82;;;18.40;70.20;;;;;;5110013;28;20073;-77
2021/10/16 10:38:34;;;;;;;27.40;5.55;;;18.50;70.00;;;;;;5113112;28;20020;-81
2021/10/16 10:41:24;;;;;;;25.83;5.78;;;18.60;69.70;;;;;;5115335;28;20018;-79
2021/10/16 10:43:54;;;;;;;21.15;5.60;;;18.60;69.70;;;;;;5115034;28;20024;-79
2021/10/16 10:46:27;;;;;;;33.72;6.25;;;18.60;69.50;;;;;;5104631;28;20028;-79
2021/10/16 10:48:53;;;;;;;27.17;5.55;;;18.70;69.50;;;;;;5095813;28;20024;-76
2021/10/16 10:51:36;;;;;;;27.60;5.72;;;18.70;69.30;;;;;;5096330;28;20173;-75
2021/10/16 10:54:17;;;;;;;21.33;5.10;;;18.80;69.30;;;;;;5094051;28;20430;-76
2021/10/16 10:56:46;;;;;;;;;;;18.80;69.10;;;;;;5087850;28;20025;-76
2021/10/16 10:59:14;;;;;;;19.30;5.05;;;18.80;69.30;;;;;;5084203;28;19908;-75
2021/10/16 11:01:43;;;;;;;19.73;4.60;;;18.80;69.10;;;;;;5095417;28;20028;-76
2021/10/16 11:04:09;;;;;;;18.90;5.00;;;18.90;69.00;;;;;;5094085;28;20051;-76
2021/10/16 11:06:35;;;;;;;21.25;6.03;;;18.90;68.90;;;;;;5075612;28;20024;-76
2021/10/16 11:09:16;;;;;;;21.58;5.53;;;18.90;68.90;;;;;;5085440;28;20438;-77
2021/10/16 11:12:07;;;;;;;17.00;4.78;;;19.00;68.80;;;;;;5093199;28;20169;-76
2021/10/16 11:14:36;;;;;;;18.25;5.03;;;18.90;68.70;;;;;;5093126;28;20024;-74
2021/10/16 11:17:10;;;;;;;15.70;4.55;;;19.00;68.90;;;;;;5094347;28;20065;-75
2021/10/16 11:19:47;;;;;;;15.50;5.10;;;19.00;68.70;;;;;;5093160;28;20024;-76
2021/10/16 11:22:13;;;;;;;16.42;4.63;;;19.00;68.70;;;;;;5094725;28;20069;-74
2021/10/16 11:24:39;;;;;;;20.75;4.55;;;19.10;68.70;;;;;;5094608;28;20024;-75
2021/10/16 11:27:05;;;;;;;12.90;4.45;;;19.10;68.50;;;;;;5092895;28;20042;-76
2021/10/16 11:29:35;;;;;;;14.15;4.82;;;19.10;68.40;;;;;;5093312;28;20024;-75
2021/10/16 11:32:33;;;;;;;21.85;6.03;;;19.10;68.30;;;;;;5093106;28;20020;-75
2021/10/16 11:35:07;;;;;;;14.85;4.70;;;19.20;68.40;;;;;;5081622;28;20047;-76
2021/10/16 11:37:49;;;;;;;15.73;4.68;;;19.20;68.40;;;;;;5094404;28;20394;-75
2021/10/16 11:40:21;;;;;;;14.82;4.60;;;19.20;68.30;;;;;;5094085;28;20031;-74
2021/10/16 11:42:55;;;;;;;15.45;5.00;;;19.30;68.20;;;;;;5094245;28;20024;-74
2021/10/16 11:45:24;;;;;;;14.10;4.97;;;19.30;67.90;;;;;;5094195;28;20020;-75
2021/10/16 11:47:53;;;;;;;14.82;4.43;;;19.20;67.70;;;;;;5094000;28;20020;-75
2021/10/16 11:50:25;;;;;;;12.90;4.10;;;19.30;67.50;;;;;;5093852;28;20016;-74
2021/10/16 11:53:05;;;;;;;13.07;4.72;;;19.30;67.30;;;;;;5092681;28;20020;-74
2021/10/16 11:55:31;;;;;;;14.23;3.72;;;19.30;67.10;;;;;;5093829;28;20063;-75
2021/10/16 11:58:07;;;;;;;18.13;4.47;;;19.30;67.60;;;;;;5092798;28;20024;-75
2021/10/16 12:00:37;;;;;;;54.85;7.72;;;19.30;67.00;;;;;;5092444;28;20023;-77
2021/10/16 12:03:27;;;;;;;54.42;7.57;;;19.20;65.80;;;;;;5093633;28;20477;-75
2021/10/16 12:05:55;;;;;;;;;;;18.80;66.20;;;;;;5093124;28;20024;-75
2021/10/16 12:08:26;;;;;;;44.45;6.38;;;18.40;67.20;;;;;;5093605;28;19949;-75
2021/10/16 12:10:57;;;;;;;47.78;6.50;;;18.10;67.20;;;;;;5093738;28;20023;-76
2021/10/16 12:13:34;;;;;;;59.78;8.13;;;17.80;68.00;;;;;;5093519;28;20074;-75
2021/10/16 12:16:21;;;;;;;42.85;6.20;;;17.50;69.10;;;;;;5093652;28;20484;-74
2021/10/16 12:18:54;;;;;;;51.85;8.73;;;17.30;69.80;;;;;;5091973;28;20059;-75
2021/10/16 12:21:34;;;;;;;73.70;9.73;;;17.10;70.40;;;;;;5093425;28;20546;-76
2021/10/16 12:24:13;;;;;;;86.25;11.80;;;17.00;71.10;;;;;;5093222;28;20029;-75
2021/10/16 12:26:41;;;;;;;86.75;10.00;;;16.80;72.00;;;;;;5093245;28;20077;-76
2021/10/16 12:29:11;;;;;;;96.15;10.50;;;16.70;72.90;;;;;;5093112;28;20039;-75
2021/10/16 12:31:52;;;;;;;79.57;10.57;;;16.50;73.30;;;;;;5093097;28;20028;-76
2021/10/16 12:34:37;;;;;;;105.13;11.65;;;16.40;73.60;;;;;;5092890;28;20114;-75
2021/10/16 12:37:05;;;;;;;109.35;12.77;;;16.30;74.10;;;;;;5093079;28;20023;-76
2021/10/16 12:39:35;;;;;;;136.93;15.43;;;16.20;74.10;;;;;;5091669;28;20032;-76
2021/10/16 12:42:11;;;;;;;262.05;23.92;;;16.10;74.90;;;;;;5092978;28;20020;-76
2021/10/16 12:44:39;;;;;;;269.30;23.65;;;16.10;74.70;;;;;;5093222;28;20028;-76
2021/10/16 12:47:11;;;;;;;439.65;39.05;;;16.00;75.40;;;;;;5092809;28;20027;-75
2021/10/16 12:49:49;;;;;;;587.70;47.00;;;16.00;75.40;;;;;;5092527;28;20032;-76